Chelan, Washington
Current Conditions -  °F | °C
As of 9:55 AM on Thursday 29 Jan 2015 (Local Time) from KEAT Reporting Station
Overcast Overcast  
Wind Chill: 29°   Ceiling: 800
Heat Index: 34°   Visibility: 10mi
Dew Point: 29°   Wind: 6mph
Humidity: 82%   Direction: 300°WNW
Pressure: 30.49"   Gusts: NA
Location:  47.84°N, 120.01°W
Report Text: KEAT 291755Z AUTO 30005KT 10SM OVC008 01/M02 A3049 RMK AO2 SLP336 T00111017 10011 20006 51004
Loading
Personal Weather Stations






























Interactive Weather Map New forecast layout! Learn more

10-Day Weather Forecast

Advertisements
Track Severe Weather on mobile